Time;durP1;ratioP1;P1;durP2;ratioP2;P2;SDS_P1;SDS_P2;PMS_P1;PMS_P2;Temp;Humidity;BMP_temperature;BMP_pressure;BME280_temperature;BME280_humidity;BME280_pressure;Samples;Min_cycle;Max_cycle;Signal;HPM_P1;HPM_P2
2021/07/30 00:00:17;;;;;;;;;;;;;;;;;;2126290;27;19923;-41
2021/07/30 00:01:20;;;;;;;;;;;;;;;;;;2125061;27;20360;-42
2021/07/30 00:02:21;;;;;;;;;;;;;;;;;;2123296;28;19927;-42
2021/07/30 00:03:22;;;;;;;;;;;;;;;;;;2121384;27;20380;-41
2021/07/30 00:04:23;;;;;;;;;;;;;;;;;;2130745;27;19923;-42
2021/07/30 00:05:24;;;;;;;;;;;;;;;;;;2132084;27;19970;-41
2021/07/30 00:06:25;;;;;;;;;;;;;;;;;;2124422;27;20014;-42
2021/07/30 00:07:26;;;;;;;;;;;;;;;;;;2131437;27;19959;-42
2021/07/30 00:08:27;;;;;;;;;;;;;;;;;;2132041;27;20302;-42
2021/07/30 00:09:27;;;;;;;;;;;;;;;;;;2124880;27;19930;-42
2021/07/30 00:10:28;;;;;;;;;;;;;;;;;;2132016;27;20005;-42
2021/07/30 00:11:29;;;;;;;;;;;;;;;;;;2131854;27;20383;-42
2021/07/30 00:12:30;;;;;;;;;;;;;;;;;;2124352;27;20006;-42
2021/07/30 00:13:31;;;;;;;;;;;;;;;;;;2114839;28;20392;-41
2021/07/30 00:14:32;;;;;;;;;;;;;;;;;;2114779;28;19924;-42
2021/07/30 00:15:33;;;;;;;;;;;;;;;;;;2122307;27;19927;-41
2021/07/30 00:16:34;;;;;;;;;;;;;;;;;;2123448;28;19927;-42
2021/07/30 00:17:35;;;;;;;;;;;;;;;;;;2123299;28;20042;-42
2021/07/30 00:18:36;;;;;;;;;;;;;;;;;;2123334;27;20407;-41
2021/07/30 00:19:37;;;;;;;;;;;;;;;;;;2132012;27;20279;-41
2021/07/30 00:20:38;;;;;;;;;;;;;;;;;;2131126;27;19929;-42
2021/07/30 00:21:39;;;;;;;;;;;;;;;;;;2123587;27;19923;-41
2021/07/30 00:22:40;;;;;;;;;;;;;;;;;;2123295;28;20354;-42
2021/07/30 00:23:41;;;;;;;;;;;;;;;;;;2123052;27;19966;-41
2021/07/30 00:24:42;;;;;;;;;;;;;;;;;;2124685;27;19930;-41
2021/07/30 00:25:42;;;;;;;;;;;;;;;;;;2123480;28;19962;-42
2021/07/30 00:26:43;;;;;;;;;;;;;;;;;;2128277;27;19923;-42
2021/07/30 00:27:44;;;;;;;;;;;;;;;;;;2124072;27;20589;-42
2021/07/30 00:28:45;;;;;;;;;;;;;;;;;;2123450;28;19992;-42
2021/07/30 00:29:46;;;;;;;;;;;;;;;;;;2121689;27;20390;-41
2021/07/30 00:30:47;;;;;;;;;;;;;;;;;;2124891;27;19923;-42
2021/07/30 00:31:48;;;;;;;;;;;;;;;;;;2123227;28;19923;-41
2021/07/30 00:32:49;;;;;;;;;;;;;;;;;;2122386;27;19923;-42
2021/07/30 00:33:50;;;;;;;;;;;;;;;;;;2128576;27;20422;-41
2021/07/30 00:34:51;;;;;;;;;;;;;;;;;;2131803;27;19923;-42
2021/07/30 00:35:51;;;;;;;;;;;;;;;;;;2126289;27;19923;-41
2021/07/30 00:36:52;;;;;;;;;;;;;;;;;;2129272;27;19923;-42
2021/07/30 00:37:54;;;;;;;;;;;;;;;;;;2131721;27;19923;-42
2021/07/30 00:38:56;;;;;;;;;;;;;;;;;;2126056;27;20024;-42
2021/07/30 00:39:56;;;;;;;;;;;;;;;;;;2124116;27;20004;-41
2021/07/30 00:40:58;;;;;;;;;;;;;;;;;;2123380;28;19923;-42
2021/07/30 00:42:02;;;;;;;;;;;;;;;;;;2121267;27;19980;-42
2021/07/30 00:43:03;;;;;;;;;;;;;;;;;;2131213;27;19923;-40
2021/07/30 00:44:03;;;;;;;;;;;;;;;;;;2131855;27;20370;-41
2021/07/30 00:45:04;;;;;;;;;;;;;;;;;;2125591;27;19929;-42
2021/07/30 00:46:05;;;;;;;;;;;;;;;;;;2123167;27;19923;-41
2021/07/30 00:47:09;;;;;;;;;;;;;;;;;;2123028;28;19938;-41
2021/07/30 00:48:11;;;;;;;;;;;;;;;;;;2114051;28;20053;-42
2021/07/30 00:49:16;;;;;;;;;;;;;;;;;;2114421;28;19924;-41
2021/07/30 00:50:18;;;;;;;;;;;;;;;;;;2122691;28;19931;-42
2021/07/30 00:51:22;;;;;;;;;;;;;;;;;;2115054;28;19923;-42
2021/07/30 00:52:24;;;;;;;;;;;;;;;;;;2121533;27;20315;-42
2021/07/30 00:53:31;;;;;;;;;;;;;;;;;;2120237;28;19972;-41
2021/07/30 00:54:32;;;;;;;;;;;;;;;;;;2119769;27;20403;-42
2021/07/30 00:55:49;;;;;;;;;;;;;;;;;;2131839;27;19922;-42
2021/07/30 00:56:50;;;;;;;;;;;;;;;;;;2124045;27;20364;-41
2021/07/30 00:57:55;;;;;;;;;;;;;;;;;;2131010;27;19975;-42
2021/07/30 00:58:57;;;;;;;;;;;;;;;;;;2131570;27;19927;-41
2021/07/30 01:00:00;;;;;;;;;;;;;;;;;;2123360;27;20395;-42
2021/07/30 01:01:07;;;;;;;;;;;;;;;;;;2114204;28;20287;-42
2021/07/30 01:02:12;;;;;;;;;;;;;;;;;;2113999;27;19931;-43
2021/07/30 01:03:15;;;;;;;;;;;;;;;;;;2124585;27;19923;-42
2021/07/30 01:04:20;;;;;;;;;;;;;;;;;;2131236;27;19972;-41
2021/07/30 01:05:21;;;;;;;;;;;;;;;;;;2128234;27;19930;-42
2021/07/30 01:06:25;;;;;;;;;;;;;;;;;;2124646;27;20015;-41
2021/07/30 01:07:27;;;;;;;;;;;;;;;;;;2122955;28;19970;-42
2021/07/30 01:08:31;;;;;;;;;;;;;;;;;;2119582;27;19971;-42
2021/07/30 01:09:33;;;;;;;;;;;;;;;;;;2123004;27;19923;-41
2021/07/30 01:10:36;;;;;;;;;;;;;;;;;;2123080;28;19929;-41
2021/07/30 01:11:38;;;;;;;;;;;;;;;;;;2120488;27;19931;-41
2021/07/30 01:12:41;;;;;;;;;;;;;;;;;;2130627;27;19929;-42
2021/07/30 01:13:42;;;;;;;;;;;;;;;;;;2131215;27;20387;-42
2021/07/30 01:14:44;;;;;;;;;;;;;;;;;;2123637;27;19929;-41
2021/07/30 01:15:45;;;;;;;;;;;;;;;;;;2121560;27;19965;-42
2021/07/30 01:16:49;;;;;;;;;;;;;;;;;;2122811;28;19924;-41
2021/07/30 01:17:52;;;;;;;;;;;;;;;;;;2122782;27;20006;-42
2021/07/30 01:18:57;;;;;;;;;;;;;;;;;;2122806;28;19938;-41
2021/07/30 01:19:58;;;;;;;;;;;;;;;;;;2122531;27;20375;-41
2021/07/30 01:21:01;;;;;;;;;;;;;;;;;;2123165;27;19971;-41
2021/07/30 01:22:03;;;;;;;;;;;;;;;;;;2122927;28;20376;-41
2021/07/30 01:23:05;;;;;;;;;;;;;;;;;;2128909;27;19923;-41
2021/07/30 01:24:08;;;;;;;;;;;;;;;;;;2123789;27;19924;-41
2021/07/30 01:25:10;;;;;;;;;;;;;;;;;;2122329;28;19927;-41
2021/07/30 01:26:14;;;;;;;;;;;;;;;;;;2120817;27;20288;-42
2021/07/30 01:27:17;;;;;;;;;;;;;;;;;;2118596;28;19923;-41
2021/07/30 01:28:20;;;;;;;;;;;;;;;;;;2122719;27;19930;-41
2021/07/30 01:29:24;;;;;;;;;;;;;;;;;;2124938;27;19924;-42
2021/07/30 01:30:27;;;;;;;;;;;;;;;;;;2129509;27;20013;-41
2021/07/30 01:31:30;;;;;;;;;;;;;;;;;;2131406;27;19958;-42
2021/07/30 01:32:36;;;;;;;;;;;;;;;;;;2123197;27;19927;-42
2021/07/30 01:33:37;;;;;;;;;;;;;;;;;;2131400;27;20013;-41
2021/07/30 01:34:38;;;;;;;;;;;;;;;;;;2131478;27;20018;-41
2021/07/30 01:35:39;;;;;;;;;;;;;;;;;;2124294;27;19922;-41
2021/07/30 01:36:40;;;;;;;;;;;;;;;;;;2122838;28;19930;-41
2021/07/30 01:37:40;;;;;;;;;;;;;;;;;;2122949;28;19969;-42
2021/07/30 01:38:41;;;;;;;;;;;;;;;;;;2122958;27;19934;-41
2021/07/30 01:39:42;;;;;;;;;;;;;;;;;;2131365;27;19923;-41
2021/07/30 01:40:43;;;;;;;;;;;;;;;;;;2130955;27;20006;-41
2021/07/30 01:41:44;;;;;;;;;;;;;;;;;;2123179;27;19927;-42
2021/07/30 01:42:44;;;;;;;;;;;;;;;;;;2122792;28;19931;-42
2021/07/30 01:43:45;;;;;;;;;;;;;;;;;;2122534;27;19923;-41
2021/07/30 01:44:46;;;;;;;;;;;;;;;;;;2124414;27;19949;-41
2021/07/30 01:45:47;;;;;;;;;;;;;;;;;;2131490;27;20280;-41
2021/07/30 01:46:48;;;;;;;;;;;;;;;;;;2129687;27;19923;-41
2021/07/30 01:47:49;;;;;;;;;;;;;;;;;;2125081;27;19970;-41
2021/07/30 01:48:49;;;;;;;;;;;;;;;;;;2131415;27;19923;-41
2021/07/30 01:49:50;;;;;;;;;;;;;;;;;;2128403;27;19923;-41
2021/07/30 01:50:51;;;;;;;;;;;;;;;;;;2124016;27;19957;-41
2021/07/30 01:51:52;;;;;;;;;;;;;;;;;;2122747;28;19989;-41
2021/07/30 01:52:53;;;;;;;;;;;;;;;;;;2122920;27;19930;-41
2021/07/30 01:53:54;;;;;;;;;;;;;;;;;;2127912;27;20017;-42
2021/07/30 01:54:54;;;;;;;;;;;;;;;;;;2131405;27;20310;-41
2021/07/30 01:55:55;;;;;;;;;;;;;;;;;;2126021;27;20299;-41
2021/07/30 01:56:56;;;;;;;;;;;;;;;;;;2128415;27;19934;-41
2021/07/30 01:57:57;;;;;;;;;;;;;;;;;;2131048;27;19923;-42
2021/07/30 01:58:58;;;;;;;;;;;;;;;;;;2125552;27;19923;-41
2021/07/30 01:59:59;;;;;;;;;;;;;;;;;;2124307;27;19930;-42
2021/07/30 02:00:59;;;;;;;;;;;;;;;;;;2122744;28;19923;-41
2021/07/30 02:02:00;;;;;;;;;;;;;;;;;;2120713;27;20018;-42
2021/07/30 02:03:01;;;;;;;;;;;;;;;;;;2129770;27;19976;-41
2021/07/30 02:04:02;;;;;;;;;;;;;;;;;;2131327;27;19927;-42
2021/07/30 02:05:05;;;;;;;;;;;;;;;;;;2123972;27;19923;-41
2021/07/30 02:06:06;;;;;;;;;;;;;;;;;;2130729;27;19931;-41
2021/07/30 02:07:06;;;;;;;;;;;;;;;;;;2131163;27;19927;-41
2021/07/30 02:08:07;;;;;;;;;;;;;;;;;;2125245;27;19923;-41
2021/07/30 02:09:08;;;;;;;;;;;;;;;;;;2122677;27;20524;-41
2021/07/30 02:10:09;;;;;;;;;;;;;;;;;;2122601;28;19923;-41
2021/07/30 02:11:10;;;;;;;;;;;;;;;;;;2121339;27;20446;-41
2021/07/30 02:12:11;;;;;;;;;;;;;;;;;;2131176;27;19923;-41
2021/07/30 02:14:32;;;;;;;;;;;;;;;;;;2125290;27;19971;-41
2021/07/30 02:15:33;;;;;;;;;;;;;;;;;;2131233;27;19934;-41
2021/07/30 02:16:34;;;;;;;;;;;;;;;;;;2127789;27;19922;-40
2021/07/30 02:17:34;;;;;;;;;;;;;;;;;;2126619;27;19923;-41
2021/07/30 02:18:35;;;;;;;;;;;;;;;;;;2128932;27;20467;-41
2021/07/30 02:19:36;;;;;;;;;;;;;;;;;;2120809;27;19928;-41
2021/07/30 02:20:37;;;;;;;;;;;;;;;;;;2124616;27;19924;-42
2021/07/30 02:21:38;;;;;;;;;;;;;;;;;;2122576;28;19923;-41
2021/07/30 02:22:39;;;;;;;;;;;;;;;;;;2120821;27;19962;-41
2021/07/30 02:23:39;;;;;;;;;;;;;;;;;;2128429;27;19923;-42
2021/07/30 02:24:40;;;;;;;;;;;;;;;;;;2131089;27;19923;-41
2021/07/30 02:25:41;;;;;;;;;;;;;;;;;;2125097;27;19927;-41
2021/07/30 02:26:42;;;;;;;;;;;;;;;;;;2129034;27;19923;-41
2021/07/30 02:27:42;;;;;;;;;;;;;;;;;;2131087;27;19930;-41
2021/07/30 02:28:43;;;;;;;;;;;;;;;;;;2124443;27;19975;-41
2021/07/30 02:29:44;;;;;;;;;;;;;;;;;;2128865;27;20303;-42
2021/07/30 02:30:45;;;;;;;;;;;;;;;;;;2131202;27;20368;-41
2021/07/30 02:31:48;;;;;;;;;;;;;;;;;;2125346;27;20489;-41
2021/07/30 02:32:49;;;;;;;;;;;;;;;;;;2122483;27;19924;-42
2021/07/30 02:33:49;;;;;;;;;;;;;;;;;;2122529;28;19992;-42
2021/07/30 02:34:50;;;;;;;;;;;;;;;;;;2122749;27;19923;-41
2021/07/30 02:35:51;;;;;;;;;;;;;;;;;;2122436;27;19923;-42
2021/07/30 02:36:52;;;;;;;;;;;;;;;;;;2122446;28;19923;-41
2021/07/30 02:37:53;;;;;;;;;;;;;;;;;;2121477;27;19930;-41
2021/07/30 02:38:53;;;;;;;;;;;;;;;;;;2132590;27;19922;-42
2021/07/30 02:39:54;;;;;;;;;;;;;;;;;;2132655;27;20433;-41
2021/07/30 02:40:55;;;;;;;;;;;;;;;;;;2124258;27;19975;-41
2021/07/30 02:41:56;;;;;;;;;;;;;;;;;;2132611;27;19926;-41
2021/07/30 02:42:57;;;;;;;;;;;;;;;;;;2132474;27;19929;-41
2021/07/30 02:43:57;;;;;;;;;;;;;;;;;;2124234;27;19923;-41
2021/07/30 02:44:58;;;;;;;;;;;;;;;;;;2123969;28;19923;-41
2021/07/30 02:45:59;;;;;;;;;;;;;;;;;;2123724;28;19930;-41
2021/07/30 02:47:00;;;;;;;;;;;;;;;;;;2124866;27;19991;-41
2021/07/30 02:48:01;;;;;;;;;;;;;;;;;;2132552;27;20442;-41
2021/07/30 02:49:02;;;;;;;;;;;;;;;;;;2131343;27;19927;-41
2021/07/30 02:50:02;;;;;;;;;;;;;;;;;;2125423;27;19934;-41
2021/07/30 02:51:03;;;;;;;;;;;;;;;;;;2132579;27;19923;-41
2021/07/30 02:52:04;;;;;;;;;;;;;;;;;;2130586;27;19923;-41
2021/07/30 02:53:05;;;;;;;;;;;;;;;;;;2126996;27;20014;-42
2021/07/30 02:54:06;;;;;;;;;;;;;;;;;;2132482;27;19927;-41
2021/07/30 02:55:07;;;;;;;;;;;;;;;;;;2129275;27;19927;-41
2021/07/30 02:56:07;;;;;;;;;;;;;;;;;;2125145;27;20016;-41
2021/07/30 02:57:08;;;;;;;;;;;;;;;;;;2123888;28;19929;-41
2021/07/30 02:58:11;;;;;;;;;;;;;;;;;;2121931;27;19923;-41
2021/07/30 02:59:12;;;;;;;;;;;;;;;;;;2129276;27;19923;-41
2021/07/30 03:00:13;;;;;;;;;;;;;;;;;;2132476;27;19923;-41
2021/07/30 03:01:14;;;;;;;;;;;;;;;;;;2127006;27;19952;-41
2021/07/30 03:02:15;;;;;;;;;;;;;;;;;;2128838;27;20340;-41
2021/07/30 03:03:16;;;;;;;;;;;;;;;;;;2132570;27;19927;-41
2021/07/30 03:04:17;;;;;;;;;;;;;;;;;;2126025;27;20312;-42
2021/07/30 03:05:17;;;;;;;;;;;;;;;;;;2130524;27;19971;-41
2021/07/30 03:06:18;;;;;;;;;;;;;;;;;;2132520;27;19932;-41
2021/07/30 03:07:19;;;;;;;;;;;;;;;;;;2125269;27;19923;-41
2021/07/30 03:08:21;;;;;;;;;;;;;;;;;;2131440;27;20380;-41
2021/07/30 03:09:21;;;;;;;;;;;;;;;;;;2132508;27;20023;-41
2021/07/30 03:10:22;;;;;;;;;;;;;;;;;;2124577;27;20008;-42
2021/07/30 03:11:23;;;;;;;;;;;;;;;;;;2132128;27;19927;-41
2021/07/30 03:12:24;;;;;;;;;;;;;;;;;;2132466;27;19926;-41
2021/07/30 03:13:25;;;;;;;;;;;;;;;;;;2124238;27;19923;-41
2021/07/30 03:14:26;;;;;;;;;;;;;;;;;;2132220;27;20362;-41
2021/07/30 03:15:26;;;;;;;;;;;;;;;;;;2124882;27;20527;-42
2021/07/30 03:16:27;;;;;;;;;;;;;;;;;;2124897;27;19927;-41
2021/07/30 03:17:28;;;;;;;;;;;;;;;;;;2115108;28;20299;-41
2021/07/30 03:18:29;;;;;;;;;;;;;;;;;;2115209;28;19924;-41
2021/07/30 03:19:30;;;;;;;;;;;;;;;;;;2122134;27;19924;-41
2021/07/30 03:20:31;;;;;;;;;;;;;;;;;;2132183;27;20029;-41
2021/07/30 03:21:31;;;;;;;;;;;;;;;;;;2132329;27;20017;-41
2021/07/30 03:22:32;;;;;;;;;;;;;;;;;;2123811;27;19923;-41
2021/07/30 03:23:33;;;;;;;;;;;;;;;;;;2123677;28;20021;-41
2021/07/30 03:24:34;;;;;;;;;;;;;;;;;;2123487;27;19927;-41
2021/07/30 03:25:35;;;;;;;;;;;;;;;;;;2124758;27;19923;-41
2021/07/30 03:26:36;;;;;;;;;;;;;;;;;;2132405;27;19934;-41
2021/07/30 03:27:37;;;;;;;;;;;;;;;;;;2130783;27;19927;-41
2021/07/30 03:28:38;;;;;;;;;;;;;;;;;;2123969;27;20383;-41
2021/07/30 03:29:39;;;;;;;;;;;;;;;;;;2123718;28;20294;-41
2021/07/30 03:30:40;;;;;;;;;;;;;;;;;;2122971;27;19966;-41
2021/07/30 03:31:40;;;;;;;;;;;;;;;;;;2124528;27;20022;-41
2021/07/30 03:32:41;;;;;;;;;;;;;;;;;;2123746;28;19923;-41
2021/07/30 03:33:42;;;;;;;;;;;;;;;;;;2122368;27;19923;-41
2021/07/30 03:34:43;;;;;;;;;;;;;;;;;;2126460;27;19946;-41
2021/07/30 03:35:44;;;;;;;;;;;;;;;;;;2123626;28;19998;-42
2021/07/30 03:36:47;;;;;;;;;;;;;;;;;;2122446;27;19923;-41
2021/07/30 03:37:47;;;;;;;;;;;;;;;;;;2125829;27;20010;-42
2021/07/30 03:38:48;;;;;;;;;;;;;;;;;;2123656;28;19923;-41
2021/07/30 03:39:49;;;;;;;;;;;;;;;;;;2121805;27;20013;-41
2021/07/30 03:40:50;;;;;;;;;;;;;;;;;;2129719;27;19923;-41
2021/07/30 03:41:51;;;;;;;;;;;;;;;;;;2132213;27;19922;-41
2021/07/30 03:42:52;;;;;;;;;;;;;;;;;;2126517;27;19924;-41
2021/07/30 03:43:52;;;;;;;;;;;;;;;;;;2124823;27;19923;-41
2021/07/30 03:44:53;;;;;;;;;;;;;;;;;;2123490;28;20282;-41
2021/07/30 03:45:54;;;;;;;;;;;;;;;;;;2121457;27;19971;-41
2021/07/30 03:46:55;;;;;;;;;;;;;;;;;;2131275;27;19929;-43
2021/07/30 03:47:55;;;;;;;;;;;;;;;;;;2132069;27;19930;-41
2021/07/30 03:48:56;;;;;;;;;;;;;;;;;;2126490;27;20343;-41
2021/07/30 03:49:57;;;;;;;;;;;;;;;;;;2122668;27;19923;-41
2021/07/30 03:50:58;;;;;;;;;;;;;;;;;;2123640;28;20398;-42
2021/07/30 03:51:59;;;;;;;;;;;;;;;;;;2123723;27;19995;-41
2021/07/30 03:52:59;;;;;;;;;;;;;;;;;;2129116;27;19930;-42
2021/07/30 03:54:00;;;;;;;;;;;;;;;;;;2132111;27;19923;-41
2021/07/30 03:55:01;;;;;;;;;;;;;;;;;;2124066;27;19924;-42
2021/07/30 03:56:02;;;;;;;;;;;;;;;;;;2132236;27;20260;-41
2021/07/30 03:57:03;;;;;;;;;;;;;;;;;;2131935;27;20395;-41
2021/07/30 03:58:04;;;;;;;;;;;;;;;;;;2124460;27;19922;-41
2021/07/30 03:59:04;;;;;;;;;;;;;;;;;;2123482;28;19955;-41
2021/07/30 04:00:05;;;;;;;;;;;;;;;;;;2123508;28;20422;-41
2021/07/30 04:01:07;;;;;;;;;;;;;;;;;;2123420;27;19927;-41
2021/07/30 04:02:08;;;;;;;;;;;;;;;;;;2131965;27;20387;-41
2021/07/30 04:03:08;;;;;;;;;;;;;;;;;;2131358;27;19930;-42
2021/07/30 04:04:09;;;;;;;;;;;;;;;;;;2124474;27;19976;-41
2021/07/30 04:05:10;;;;;;;;;;;;;;;;;;2131983;27;19952;-41
2021/07/30 04:06:11;;;;;;;;;;;;;;;;;;2130827;27;19923;-42
2021/07/30 04:07:12;;;;;;;;;;;;;;;;;;2125063;27;19984;-42
2021/07/30 04:08:13;;;;;;;;;;;;;;;;;;2131988;27;19923;-42
2021/07/30 04:09:13;;;;;;;;;;;;;;;;;;2129834;27;19923;-42
2021/07/30 04:10:14;;;;;;;;;;;;;;;;;;2124119;27;20307;-41
2021/07/30 04:11:15;;;;;;;;;;;;;;;;;;2126770;27;20331;-41
2021/07/30 04:12:16;;;;;;;;;;;;;;;;;;2128355;27;20406;-41
2021/07/30 04:14:39;;;;;;;;;;;;;;;;;;2123376;28;20013;-42
2021/07/30 04:15:40;;;;;;;;;;;;;;;;;;2121444;27;19931;-42
2021/07/30 04:16:41;;;;;;;;;;;;;;;;;;2129678;27;20229;-41
2021/07/30 04:17:42;;;;;;;;;;;;;;;;;;2131852;27;20379;-42
2021/07/30 04:18:43;;;;;;;;;;;;;;;;;;2125446;27;19927;-41
2021/07/30 04:19:44;;;;;;;;;;;;;;;;;;2123250;27;20363;-41
2021/07/30 04:20:44;;;;;;;;;;;;;;;;;;2123500;28;20040;-42
2021/07/30 04:21:45;;;;;;;;;;;;;;;;;;2123195;27;19965;-41
2021/07/30 04:22:46;;;;;;;;;;;;;;;;;;2123385;28;19970;-42
2021/07/30 04:23:47;;;;;;;;;;;;;;;;;;2123202;28;20394;-42
2021/07/30 04:24:48;;;;;;;;;;;;;;;;;;2123054;27;19930;-42
2021/07/30 04:25:51;;;;;;;;;;;;;;;;;;2131903;27;19922;-41
2021/07/30 04:26:52;;;;;;;;;;;;;;;;;;2131330;27;19972;-41
2021/07/30 04:27:53;;;;;;;;;;;;;;;;;;2124176;27;20032;-41
2021/07/30 04:28:54;;;;;;;;;;;;;;;;;;2131881;27;19922;-42
2021/07/30 04:29:54;;;;;;;;;;;;;;;;;;2130723;27;20017;-42
2021/07/30 04:30:55;;;;;;;;;;;;;;;;;;2124975;27;19976;-41
2021/07/30 04:31:56;;;;;;;;;;;;;;;;;;2131833;27;20399;-42
2021/07/30 04:32:57;;;;;;;;;;;;;;;;;;2129620;27;19923;-42
2021/07/30 04:33:58;;;;;;;;;;;;;;;;;;2124037;27;20398;-42
2021/07/30 04:34:59;;;;;;;;;;;;;;;;;;2123226;28;20355;-42
2021/07/30 04:35:59;;;;;;;;;;;;;;;;;;2122107;27;20010;-42
2021/07/30 04:37:00;;;;;;;;;;;;;;;;;;2124501;27;19930;-42
2021/07/30 04:38:01;;;;;;;;;;;;;;;;;;2123313;28;20006;-42
2021/07/30 04:39:02;;;;;;;;;;;;;;;;;;2121374;27;20668;-42
2021/07/30 04:40:03;;;;;;;;;;;;;;;;;;2128423;27;19923;-42
2021/07/30 04:41:04;;;;;;;;;;;;;;;;;;2131771;27;20391;-42
2021/07/30 04:42:04;;;;;;;;;;;;;;;;;;2126340;27;19975;-42
2021/07/30 04:43:05;;;;;;;;;;;;;;;;;;2129001;27;19966;-41
2021/07/30 04:44:06;;;;;;;;;;;;;;;;;;2131794;27;20029;-42
2021/07/30 04:45:07;;;;;;;;;;;;;;;;;;2125668;27;19927;-41
2021/07/30 04:46:08;;;;;;;;;;;;;;;;;;2129468;27;19931;-42
2021/07/30 04:47:08;;;;;;;;;;;;;;;;;;2131775;27;19923;-42
2021/07/30 04:48:09;;;;;;;;;;;;;;;;;;2126057;27;20299;-42
2021/07/30 04:49:10;;;;;;;;;;;;;;;;;;2124014;27;20334;-42
2021/07/30 04:50:11;;;;;;;;;;;;;;;;;;2123239;28;19923;-42
2021/07/30 04:51:12;;;;;;;;;;;;;;;;;;2120977;27;19931;-42
2021/07/30 04:52:12;;;;;;;;;;;;;;;;;;2129320;27;19922;-42
2021/07/30 04:53:13;;;;;;;;;;;;;;;;;;2131666;27;19922;-42
2021/07/30 04:54:14;;;;;;;;;;;;;;;;;;2125976;27;19927;-42
2021/07/30 04:55:15;;;;;;;;;;;;;;;;;;2123061;27;20311;-42
2021/07/30 04:56:15;;;;;;;;;;;;;;;;;;2123266;28;19923;-42
2021/07/30 04:57:16;;;;;;;;;;;;;;;;;;2121310;27;20320;-42
2021/07/30 04:58:17;;;;;;;;;;;;;;;;;;2131490;27;20463;-42
2021/07/30 04:59:18;;;;;;;;;;;;;;;;;;2131724;27;19930;-42
2021/07/30 05:00:19;;;;;;;;;;;;;;;;;;2124311;27;20391;-42
2021/07/30 05:01:20;;;;;;;;;;;;;;;;;;2123154;27;19930;-42
2021/07/30 05:02:21;;;;;;;;;;;;;;;;;;2122982;28;20431;-43
2021/07/30 05:03:22;;;;;;;;;;;;;;;;;;2123205;27;19922;-42
2021/07/30 05:04:22;;;;;;;;;;;;;;;;;;2123043;28;19958;-42
2021/07/30 05:05:23;;;;;;;;;;;;;;;;;;2123328;28;19930;-42
2021/07/30 05:06:25;;;;;;;;;;;;;;;;;;2123343;27;19923;-42
2021/07/30 05:07:26;;;;;;;;;;;;;;;;;;2128456;27;20017;-42
2021/07/30 05:08:27;;;;;;;;;;;;;;;;;;2122666;27;19934;-42
2021/07/30 05:09:28;;;;;;;;;;;;;;;;;;2124516;27;20284;-43
2021/07/30 05:10:29;;;;;;;;;;;;;;;;;;2131536;27;20360;-42
2021/07/30 05:11:30;;;;;;;;;;;;;;;;;;2129875;27;19923;-42
2021/07/30 05:12:30;;;;;;;;;;;;;;;;;;2125329;27;20521;-42
2021/07/30 05:13:32;;;;;;;;;;;;;;;;;;2131534;27;19983;-42
2021/07/30 05:14:32;;;;;;;;;;;;;;;;;;2128549;27;19922;-42
2021/07/30 05:15:33;;;;;;;;;;;;;;;;;;2124060;27;19927;-42
2021/07/30 05:16:34;;;;;;;;;;;;;;;;;;2123122;28;19949;-43
2021/07/30 05:17:35;;;;;;;;;;;;;;;;;;2120991;27;19923;-43
2021/07/30 05:18:36;;;;;;;;;;;;;;;;;;2127797;27;20550;-43
2021/07/30 05:19:37;;;;;;;;;;;;;;;;;;2131558;27;19927;-44
2021/07/30 05:20:37;;;;;;;;;;;;;;;;;;2126432;27;19923;-42
2021/07/30 05:21:38;;;;;;;;;;;;;;;;;;2124694;27;19924;-43
2021/07/30 05:22:39;;;;;;;;;;;;;;;;;;2122835;28;19930;-42
2021/07/30 05:23:40;;;;;;;;;;;;;;;;;;2121290;27;19924;-42
2021/07/30 05:24:41;;;;;;;;;;;;;;;;;;2124541;27;20335;-42
2021/07/30 05:25:42;;;;;;;;;;;;;;;;;;2122928;28;20413;-43
2021/07/30 05:26:42;;;;;;;;;;;;;;;;;;2121795;27;19923;-42
2021/07/30 05:27:43;;;;;;;;;;;;;;;;;;2123824;27;19923;-43
2021/07/30 05:28:44;;;;;;;;;;;;;;;;;;2122875;28;20399;-42
2021/07/30 05:29:45;;;;;;;;;;;;;;;;;;2122520;27;19923;-42
2021/07/30 05:30:46;;;;;;;;;;;;;;;;;;2123284;27;20010;-42
2021/07/30 05:31:47;;;;;;;;;;;;;;;;;;2123008;28;19927;-42
2021/07/30 05:32:47;;;;;;;;;;;;;;;;;;2122850;27;19924;-42
2021/07/30 05:33:48;;;;;;;;;;;;;;;;;;2122895;27;19923;-42
2021/07/30 05:34:49;;;;;;;;;;;;;;;;;;2123012;28;19924;-42
2021/07/30 05:35:50;;;;;;;;;;;;;;;;;;2121086;27;19930;-42
2021/07/30 05:36:51;;;;;;;;;;;;;;;;;;2131279;27;19957;-42
2021/07/30 05:37:52;;;;;;;;;;;;;;;;;;2131301;27;19923;-42
2021/07/30 05:38:52;;;;;;;;;;;;;;;;;;2124584;27;19923;-42
2021/07/30 05:39:53;;;;;;;;;;;;;;;;;;2114452;28;19949;-42
2021/07/30 05:40:54;;;;;;;;;;;;;;;;;;2114444;28;20018;-43
2021/07/30 05:41:55;;;;;;;;;;;;;;;;;;2121378;27;19928;-42
2021/07/30 05:42:55;;;;;;;;;;;;;;;;;;2131487;27;19975;-42
2021/07/30 05:43:56;;;;;;;;;;;;;;;;;;2131497;27;19934;-42
2021/07/30 05:44:57;;;;;;;;;;;;;;;;;;2122981;27;20440;-42
2021/07/30 05:45:58;;;;;;;;;;;;;;;;;;2122962;28;20379;-43
2021/07/30 05:46:59;;;;;;;;;;;;;;;;;;2122411;27;19923;-42
2021/07/30 05:48:00;;;;;;;;;;;;;;;;;;2123900;27;19962;-42
2021/07/30 05:49:01;;;;;;;;;;;;;;;;;;2131373;27;20017;-42
2021/07/30 05:50:01;;;;;;;;;;;;;;;;;;2130031;27;19929;-42
2021/07/30 05:51:02;;;;;;;;;;;;;;;;;;2124651;27;19927;-42
2021/07/30 05:52:03;;;;;;;;;;;;;;;;;;2131382;27;20250;-43
2021/07/30 05:53:05;;;;;;;;;;;;;;;;;;2127151;27;20276;-42
2021/07/30 05:54:06;;;;;;;;;;;;;;;;;;2123665;27;19931;-43
2021/07/30 05:55:07;;;;;;;;;;;;;;;;;;2122949;28;19927;-42
2021/07/30 05:56:08;;;;;;;;;;;;;;;;;;2121198;27;19923;-44
2021/07/30 05:57:08;;;;;;;;;;;;;;;;;;2127101;27;19944;-42
2021/07/30 05:58:09;;;;;;;;;;;;;;;;;;2131228;27;19923;-43
2021/07/30 05:59:10;;;;;;;;;;;;;;;;;;2126298;27;19930;-47
2021/07/30 06:00:11;;;;;;;;;;;;;;;;;;2124618;27;20395;-43
2021/07/30 06:01:12;;;;;;;;;;;;;;;;;;2122859;28;19927;-42
2021/07/30 06:02:13;;;;;;;;;;;;;;;;;;2120794;27;20307;-43
2021/07/30 06:03:13;;;;;;;;;;;;;;;;;;2123546;27;20384;-43
2021/07/30 06:04:14;;;;;;;;;;;;;;;;;;2130239;27;19923;-44
2021/07/30 06:05:15;;;;;;;;;;;;;;;;;;2125484;27;19928;-43
2021/07/30 06:06:16;;;;;;;;;;;;;;;;;;2123972;27;19972;-43
2021/07/30 06:07:17;;;;;;;;;;;;;;;;;;2122801;28;20021;-43
2021/07/30 06:08:18;;;;;;;;;;;;;;;;;;2120835;27;20313;-43
2021/07/30 06:09:19;;;;;;;;;;;;;;;;;;2130360;27;19930;-43
2021/07/30 06:10:20;;;;;;;;;;;;;;;;;;2131166;27;19965;-46
2021/07/30 06:11:21;;;;;;;;;;;;;;;;;;2125279;27;20402;-43
2021/07/30 06:12:21;;;;;;;;;;;;;;;;;;2122739;27;19930;-43
2021/07/30 06:13:22;;;;;;;;;;;;;;;;;;2123715;28;19930;-42
2021/07/30 06:14:23;;;;;;;;;;;;;;;;;;2122460;27;19930;-43
2021/07/30 06:15:24;;;;;;;;;;;;;;;;;;2132673;27;20343;-43
2021/07/30 06:16:25;;;;;;;;;;;;;;;;;;2132737;27;19922;-43
2021/07/30 06:17:37;;;;;;;;;;;;;;;;;;2124079;27;19976;-43
2021/07/30 06:18:38;;;;;;;;;;;;;;;;;;2124138;28;19923;-43
2021/07/30 06:19:39;;;;;;;;;;;;;;;;;;2123930;27;19923;-43
2021/07/30 06:20:40;;;;;;;;;;;;;;;;;;2124491;27;20292;-43
2021/07/30 06:21:41;;;;;;;;;;;;;;;;;;2124117;28;20423;-43
2021/07/30 06:22:42;;;;;;;;;;;;;;;;;;2123798;27;19930;-43
2021/07/30 06:23:43;;;;;;;;;;;;;;;;;;2124430;27;20387;-43
2021/07/30 06:24:44;;;;;;;;;;;;;;;;;;2124067;28;20050;-44
2021/07/30 06:25:45;;;;;;;;;;;;;;;;;;2123133;27;20220;-44
2021/07/30 06:26:45;;;;;;;;;;;;;;;;;;2127782;27;20353;-43
2021/07/30 06:27:46;;;;;;;;;;;;;;;;;;2132563;27;19968;-43
2021/07/30 06:28:47;;;;;;;;;;;;;;;;;;2128259;27;20001;-43
2021/07/30 06:29:48;;;;;;;;;;;;;;;;;;2128864;27;19927;-43
2021/07/30 06:30:49;;;;;;;;;;;;;;;;;;2132682;27;19923;-43
2021/07/30 06:31:50;;;;;;;;;;;;;;;;;;2127536;27;20072;-43
2021/07/30 06:32:50;;;;;;;;;;;;;;;;;;2129650;27;19930;-45
2021/07/30 06:33:51;;;;;;;;;;;;;;;;;;2132573;27;20334;-43
2021/07/30 06:34:52;;;;;;;;;;;;;;;;;;2126854;27;19931;-43
2021/07/30 06:35:53;;;;;;;;;;;;;;;;;;2130328;27;19923;-43
2021/07/30 06:36:54;;;;;;;;;;;;;;;;;;2132631;27;19923;-43
2021/07/30 06:37:55;;;;;;;;;;;;;;;;;;2126823;27;20018;-44
2021/07/30 06:38:55;;;;;;;;;;;;;;;;;;2124998;27;19923;-43
2021/07/30 06:39:56;;;;;;;;;;;;;;;;;;2124028;28;20008;-43
2021/07/30 06:40:57;;;;;;;;;;;;;;;;;;2121907;27;20437;-45
2021/07/30 06:41:58;;;;;;;;;;;;;;;;;;2131795;27;19930;-44
2021/07/30 06:42:59;;;;;;;;;;;;;;;;;;2132482;27;20055;-43
2021/07/30 06:43:59;;;;;;;;;;;;;;;;;;2124797;27;19927;-43
2021/07/30 06:45:00;;;;;;;;;;;;;;;;;;2132540;27;19938;-45
2021/07/30 06:46:04;;;;;;;;;;;;;;;;;;2132722;27;19923;-43
2021/07/30 06:47:05;;;;;;;;;;;;;;;;;;2124403;27;20041;-43
2021/07/30 06:48:06;;;;;;;;;;;;;;;;;;2132373;27;19974;-43
2021/07/30 06:49:06;;;;;;;;;;;;;;;;;;2132676;27;19951;-43
2021/07/30 06:50:07;;;;;;;;;;;;;;;;;;2124076;27;19985;-43
2021/07/30 06:51:08;;;;;;;;;;;;;;;;;;2132598;27;19923;-43
2021/07/30 06:52:09;;;;;;;;;;;;;;;;;;2130952;27;19946;-43
2021/07/30 06:53:10;;;;;;;;;;;;;;;;;;2124429;27;19923;-44
2021/07/30 06:54:11;;;;;;;;;;;;;;;;;;2123912;28;19927;-44
2021/07/30 06:55:11;;;;;;;;;;;;;;;;;;2123555;27;19923;-44
2021/07/30 06:56:12;;;;;;;;;;;;;;;;;;2124262;27;20017;-44
2021/07/30 06:57:16;;;;;;;;;;;;;;;;;;2123912;28;19923;-43
2021/07/30 06:58:17;;;;;;;;;;;;;;;;;;2123506;27;20320;-43
2021/07/30 06:59:18;;;;;;;;;;;;;;;;;;2124091;27;19939;-43
2021/07/30 07:00:19;;;;;;;;;;;;;;;;;;2123925;28;19924;-43